CMA CGM Verlaine — DASO — position and weather

sailwx.info

Track history (hours):
 
Tides and Currents Weather Stations Pressure Air Temp Water Temp Dewpoint Dewpoint Depression Visibility Wind Speed Wind Dir Waves Ship Positions

CMA CGM Verlaine

Last reported at 2014-Oct-23 04:28 UTC. Time now 2014-Oct-26 00:20 UTC.
Position N 36°13' W 026°38'.

Length 300 m; beam 40 m; draft 14.5 m.

Type: Ship. MMSI: 211378820.

Date/timePositionNaut miles runAvg speedWind from/ knotsBaromVisibWave heightAir tempDewpointWater temp
2014-Oct-23 04:28N 36°13' W 026°38'1314.5
2014-Oct-23 03:33N 36°14' W 026°22'1414.4
2014-Oct-23 02:33N 36°16' W 026°04'1414.4
2014-Oct-23 01:33N 36°18' W 025°46'1414.2
2014-Oct-23 00:33N 36°19' W 025°29'1414.3
2014-Oct-22 23:34N 36°21' W 025°11'1414.3
2014-Oct-22 22:33N 36°23' W 024°53'1514.6
2014-Oct-22 21:33N 36°24' W 024°35'1514.9
2014-Oct-22 20:33N 36°26' W 024°17'1514.9
2014-Oct-22 19:33N 36°28' W 023°59'1514.7
2014-Oct-22 18:33N 36°29' W 023°41'1514.6
2014-Oct-22 17:33N 36°31' W 023°23'1514.4
2014-Oct-22 16:30N 36°33' W 023°04'1514.4
2014-Oct-22 15:29N 36°34' W 022°46'38514.8
2014-Oct-21 13:32N 37°19' W 014°47'1515.3
2014-Oct-21 12:32N 37°20' W 014°28'1515.1
2014-Oct-21 11:33N 37°22' W 014°10'1515.1
2014-Oct-21 10:33N 37°24' W 013°51'3314.6
2014-Oct-21 08:18N 37°28' W 013°10'2714.9
2014-Oct-21 06:30N 37°31' W 012°36'1414.9
2014-Oct-21 05:33N 37°32' W 012°18'1514.8
2014-Oct-21 04:33N 37°34' W 011°60'1515.1
2014-Oct-21 03:32N 37°36' W 011°41'1515.2
2014-Oct-21 02:33N 37°37' W 011°22'1515.4
2014-Oct-21 01:33N 37°39' W 011°03'1615.7
2014-Oct-21 00:33N 37°41' W 010°43'1515.5
2014-Oct-20 23:33N 37°43' W 010°24'1615.4
2014-Oct-20 22:33N 37°45' W 010°04'1515.3
2014-Oct-20 21:33N 37°47' W 009°45'1515.2
2014-Oct-20 20:33N 37°49' W 009°26'1514.8
2014-Oct-20 19:33N 37°51' W 009°07'1413.7
2014-Oct-20 18:33N 37°54' W 008°50'2 1.9
2014-Oct-20 17:31N 37°56' W 008°51'0 0.0
2014-Oct-20 16:33N 37°56' W 008°51'0 0.0
2014-Oct-20 15:33N 37°56' W 008°51'0 0.0
2014-Oct-20 14:32N 37°56' W 008°51'0 0.0
2014-Oct-20 13:32N 37°56' W 008°51'0 0.0
2014-Oct-20 12:32N 37°56' W 008°51'0 0.0
2014-Oct-20 11:28N 37°56' W 008°51'1 0.9
2014-Oct-20 10:33N 37°55' W 008°50'5 5.3
2014-Oct-20 09:33N 37°50' W 008°52'1616.1
2014-Oct-20 08:33N 37°36' W 009°01'1616.5
2014-Oct-20 07:33N 37°21' W 009°10'1817.5
2014-Oct-20 06:32N 37°05' W 009°19'1616.2
2014-Oct-20 05:32N 36°49' W 009°15'1717.0
2014-Oct-20 04:33N 36°40' W 008°57'1817.7
2014-Oct-20 03:33N 36°34' W 008°36'1817.7
2014-Oct-20 02:33N 36°28' W 008°16'1817.8
2014-Oct-20 01:33N 36°21' W 007°55'3618.2
2014-Oct-19 23:33N 36°09' W 007°13'1817.7
2014-Oct-19 22:33N 36°02' W 006°52'5918.2
2014-Oct-19 19:18N 35°58' W 005°39'1216.9
2014-Oct-19 18:33N 36°01' W 005°24'22717.4
2014-Oct-19 05:29N 37°19' W 000°58'1920.3
2014-Oct-19 04:32N 37°31' W 000°39'1919.9
2014-Oct-19 03:33N 37°46' W 000°25'2019.8
2014-Oct-19 02:33N 38°03' W 000°11'2019.9
2014-Oct-19 01:33N 38°20' E 000°02'2019.7
2014-Oct-19 00:33N 38°36' E 000°17'4518.3
2014-Oct-18 22:06N 39°19' E 000°01'1018.7
2014-Oct-18 21:33N 39°23' W 000°11'7 6.4
2014-Oct-18 20:31N 39°26' W 000°19'0 0.0
2014-Oct-18 19:33N 39°26' W 000°19'0 0.0
2014-Oct-18 18:33N 39°26' W 000°19'0 0.0
2014-Oct-18 17:32N 39°26' W 000°19'0 0.0
2014-Oct-18 16:26N 39°26' W 000°19'0 0.0
2014-Oct-18 15:31N 39°26' W 000°19'0 0.0
2014-Oct-18 14:31N 39°26' W 000°19'0 0.0
2014-Oct-18 13:31N 39°26' W 000°19'0 0.0
2014-Oct-18 12:33N 39°26' W 000°19'0 0.0
2014-Oct-18 11:33N 39°26' W 000°19'0 0.0
2014-Oct-18 10:32N 39°26' W 000°19'0 0.0
2014-Oct-18 09:32N 39°26' W 000°19'0 0.0
2014-Oct-18 08:31N 39°26' W 000°19'0 0.0
2014-Oct-18 07:31N 39°26' W 000°19'0 0.0
2014-Oct-18 06:34N 39°26' W 000°19'1 0.5
2014-Oct-18 05:33N 39°26' W 000°20'0 0.0
2014-Oct-18 04:33N 39°26' W 000°20'0 0.0
2014-Oct-18 03:33N 39°26' W 000°20'0 0.0
2014-Oct-18 02:32N 39°26' W 000°20'0 0.0
2014-Oct-18 01:32N 39°26' W 000°20'0 0.0
2014-Oct-18 00:31N 39°26' W 000°20'0 0.0
2014-Oct-17 23:31N 39°26' W 000°20'0 0.0
2014-Oct-17 22:33N 39°26' W 000°20'0 0.0
2014-Oct-17 21:33N 39°26' W 000°20'0 0.0
2014-Oct-17 20:32N 39°26' W 000°20'0 0.0
2014-Oct-17 19:32N 39°26' W 000°20'0 0.0
2014-Oct-17 18:32N 39°26' W 000°20'0 0.0
2014-Oct-17 17:31N 39°26' W 000°20'0 0.0
2014-Oct-17 16:29N 39°26' W 000°20'4 3.9
2014-Oct-17 15:33N 39°25' W 000°15'1310.1
2014-Oct-17 14:18N 39°25' E 000°01'1 0.6
2014-Oct-17 13:17N 39°25' E 000°01'0 0.2
2014-Oct-17 12:33N 39°25' E 000°02'38 6.3
2014-Oct-17 06:28N 39°39' E 000°48'1314.5
2014-Oct-17 05:33N 39°50' E 000°58'1414.4
2014-Oct-17 04:33N 40°02' E 001°08'1414.4
2014-Oct-17 03:33N 40°14' E 001°19'1414.5
2014-Oct-17 02:33N 40°25' E 001°30'1414.2
2014-Oct-17 01:33N 40°37' E 001°40'1413.9
2014-Oct-17 00:33N 40°49' E 001°51'1414.1
2014-Oct-16 23:32N 41°00' E 002°01'1414.1
2014-Oct-16 22:32N 41°12' E 002°12'7 6.8
2014-Oct-16 21:33N 41°18' E 002°09'0 0.0
2014-Oct-16 20:18N 41°18' E 002°09'0 0.0
2014-Oct-16 19:05N 41°18' E 002°09'0 0.0
2014-Oct-16 18:29N 41°18' E 002°09'0 0.0
2014-Oct-16 17:28N 41°18' E 002°09'0 0.0
2014-Oct-16 16:28N 41°18' E 002°09'0 0.0
2014-Oct-16 15:28N 41°18' E 002°09'0 0.0
2014-Oct-16 14:24N 41°18' E 002°09'0 0.0
2014-Oct-16 13:33N 41°18' E 002°09'2 1.6
2014-Oct-16 12:33N 41°18' E 002°11'5 5.1
2014-Oct-16 11:33N 41°15' E 002°16'1 1.1
2014-Oct-16 10:33N 41°14' E 002°15'1 1.4
2014-Oct-16 09:33N 41°14' E 002°13'1515.0
2014-Oct-16 08:33N 41°14' E 002°33'2016.2
2014-Oct-16 07:20N 41°23' E 002°57'1314.7
2014-Oct-16 06:25N 41°29' E 003°13'1516.9
2014-Oct-16 05:31N 41°36' E 003°30'9916.1
2014-Oct-15 23:25N 42°21' E 005°29'5116.4
2014-Oct-15 20:19N 42°44' E 006°30'1317.0
2014-Oct-15 19:33N 42°49' E 006°46'1716.7
2014-Oct-15 18:32N 42°57' E 007°07'1515.8
2014-Oct-15 17:34N 43°04' E 007°26'1615.7
2014-Oct-15 16:33N 43°11' E 007°45'1616.6
2014-Oct-15 15:33N 43°19' E 008°05'1716.8
2014-Oct-15 14:33N 43°26' E 008°26'1616.4
2014-Oct-15 13:33N 43°34' E 008°46'1616.1
2014-Oct-15 12:33N 43°38' E 009°07'1616.0
2014-Oct-15 11:33N 43°43' E 009°29'1615.7
2014-Oct-15 10:33N 43°51' E 009°47'1514.6
2014-Oct-15 09:33N 44°05' E 009°51'1 1.3
2014-Oct-15 08:31N 44°06' E 009°51'0 0.0
2014-Oct-15 07:30N 44°06' E 009°51'0 0.0
2014-Oct-15 06:33N 44°06' E 009°51'0 0.0
2014-Oct-15 05:32N 44°06' E 009°51'0 0.0
2014-Oct-15 04:32N 44°06' E 009°51'0 0.0
2014-Oct-15 03:31N 44°06' E 009°51'0 0.0
2014-Oct-15 02:31N 44°06' E 009°51'0 0.0
2014-Oct-15 01:34N 44°06' E 009°51'0 0.0
2014-Oct-15 00:33N 44°06' E 009°51'0 0.0
2014-Oct-14 23:33N 44°06' E 009°51'0 0.0
2014-Oct-14 22:32N 44°06' E 009°51'0 0.0
2014-Oct-14 21:32N 44°06' E 009°51'0 0.0
2014-Oct-14 20:31N 44°06' E 009°51'0 0.0
2014-Oct-14 19:31N 44°06' E 009°51'0 0.0
2014-Oct-14 18:34N 44°06' E 009°51'0 0.0
2014-Oct-14 17:33N 44°06' E 009°51'0 0.0
2014-Oct-14 16:33N 44°06' E 009°51'0 0.0
2014-Oct-14 15:32N 44°06' E 009°51'0 0.0
2014-Oct-14 14:32N 44°06' E 009°51'0 0.0
2014-Oct-14 13:31N 44°06' E 009°51'0 0.0
2014-Oct-14 12:31N 44°06' E 009°51'3 3.4
2014-Oct-14 11:33N 44°03' E 009°52'4 3.7
2014-Oct-14 10:33N 44°00' E 009°54'3 2.5
2014-Oct-14 09:31N 43°59' E 009°51'0 0.1
2014-Oct-14 08:31N 43°59' E 009°51'0 0.1
2014-Oct-14 07:31N 43°59' E 009°51'0 0.0
2014-Oct-14 06:33N 43°59' E 009°51'0 0.0
2014-Oct-14 05:33N 43°59' E 009°51'0 0.0
2014-Oct-14 04:32N 43°59' E 009°51'0 0.0
2014-Oct-14 03:32N 43°59' E 009°51'0 0.1
2014-Oct-14 02:31N 43°59' E 009°51'0 0.1
2014-Oct-14 01:31N 43°59' E 009°51'0 0.1
2014-Oct-14 00:31N 43°59' E 009°51'0 0.1
2014-Oct-13 23:33N 43°59' E 009°51'0 0.1
2014-Oct-13 22:33N 43°59' E 009°51'0 0.1
2014-Oct-13 21:32N 43°59' E 009°51'0 0.0
2014-Oct-13 20:32N 43°59' E 009°51'0 0.0
2014-Oct-13 19:31N 43°59' E 009°51'0 0.0
2014-Oct-13 18:31N 43°59' E 009°51'0 0.1
2014-Oct-13 17:31N 43°59' E 009°51'0 0.2
2014-Oct-13 16:33N 43°59' E 009°51'0 0.2
2014-Oct-13 15:33N 43°59' E 009°51'0 0.0
2014-Oct-13 14:29N 43°59' E 009°51'0 0.0
2014-Oct-13 13:29N 43°59' E 009°51'0 0.0
2014-Oct-13 12:31N 43°59' E 009°51'0 0.1
2014-Oct-13 11:31N 43°59' E 009°51'0 0.0
2014-Oct-13 10:31N 43°59' E 009°51'0 0.1
2014-Oct-13 09:30N 43°59' E 009°51'0 0.0
2014-Oct-13 08:33N 43°59' E 009°50'  
Track history (hours):
 
Tides and Currents Weather Stations Pressure Air Temp Water Temp Dewpoint Dewpoint Depression Visibility Wind Speed Wind Dir Waves Ship Positions

CMA CGM Verlaine

Last reported at 2014-Oct-23 04:28 UTC. Time now 2014-Oct-26 00:20 UTC.
Position N 36°13' W 026°38'.

Length 300 m; beam 40 m; draft 14.5 m.

Type: Ship. MMSI: 211378820.

Date/timePositionNaut miles runAvg speedWind from/ knotsBaromVisibWave heightAir tempDewpointWater temp
2014-Oct-23 04:28N 36°13' W 026°38'1314.5
2014-Oct-23 03:33N 36°14' W 026°22'1414.4
2014-Oct-23 02:33N 36°16' W 026°04'1414.4
2014-Oct-23 01:33N 36°18' W 025°46'1414.2
2014-Oct-23 00:33N 36°19' W 025°29'1414.3
2014-Oct-22 23:34N 36°21' W 025°11'1414.3
2014-Oct-22 22:33N 36°23' W 024°53'1514.6
2014-Oct-22 21:33N 36°24' W 024°35'1514.9
2014-Oct-22 20:33N 36°26' W 024°17'1514.9
2014-Oct-22 19:33N 36°28' W 023°59'1514.7
2014-Oct-22 18:33N 36°29' W 023°41'1514.6
2014-Oct-22 17:33N 36°31' W 023°23'1514.4
2014-Oct-22 16:30N 36°33' W 023°04'1514.4
2014-Oct-22 15:29N 36°34' W 022°46'38514.8
2014-Oct-21 13:32N 37°19' W 014°47'1515.3
2014-Oct-21 12:32N 37°20' W 014°28'1515.1
2014-Oct-21 11:33N 37°22' W 014°10'1515.1
2014-Oct-21 10:33N 37°24' W 013°51'3314.6
2014-Oct-21 08:18N 37°28' W 013°10'2714.9
2014-Oct-21 06:30N 37°31' W 012°36'1414.9
2014-Oct-21 05:33N 37°32' W 012°18'1514.8
2014-Oct-21 04:33N 37°34' W 011°60'1515.1
2014-Oct-21 03:32N 37°36' W 011°41'1515.2
2014-Oct-21 02:33N 37°37' W 011°22'1515.4
2014-Oct-21 01:33N 37°39' W 011°03'1615.7
2014-Oct-21 00:33N 37°41' W 010°43'1515.5
2014-Oct-20 23:33N 37°43' W 010°24'1615.4
2014-Oct-20 22:33N 37°45' W 010°04'1515.3
2014-Oct-20 21:33N 37°47' W 009°45'1515.2
2014-Oct-20 20:33N 37°49' W 009°26'1514.8
2014-Oct-20 19:33N 37°51' W 009°07'1413.7
2014-Oct-20 18:33N 37°54' W 008°50'2 1.9
2014-Oct-20 17:31N 37°56' W 008°51'0 0.0
2014-Oct-20 16:33N 37°56' W 008°51'0 0.0
2014-Oct-20 15:33N 37°56' W 008°51'0 0.0
2014-Oct-20 14:32N 37°56' W 008°51'0 0.0
2014-Oct-20 13:32N 37°56' W 008°51'0 0.0
2014-Oct-20 12:32N 37°56' W 008°51'0 0.0
2014-Oct-20 11:28N 37°56' W 008°51'1 0.9
2014-Oct-20 10:33N 37°55' W 008°50'5 5.3
2014-Oct-20 09:33N 37°50' W 008°52'1616.1
2014-Oct-20 08:33N 37°36' W 009°01'1616.5
2014-Oct-20 07:33N 37°21' W 009°10'1817.5
2014-Oct-20 06:32N 37°05' W 009°19'1616.2
2014-Oct-20 05:32N 36°49' W 009°15'1717.0
2014-Oct-20 04:33N 36°40' W 008°57'1817.7
2014-Oct-20 03:33N 36°34' W 008°36'1817.7
2014-Oct-20 02:33N 36°28' W 008°16'1817.8
2014-Oct-20 01:33N 36°21' W 007°55'3618.2
2014-Oct-19 23:33N 36°09' W 007°13'1817.7
2014-Oct-19 22:33N 36°02' W 006°52'5918.2
2014-Oct-19 19:18N 35°58' W 005°39'1216.9
2014-Oct-19 18:33N 36°01' W 005°24'22717.4
2014-Oct-19 05:29N 37°19' W 000°58'1920.3
2014-Oct-19 04:32N 37°31' W 000°39'1919.9
2014-Oct-19 03:33N 37°46' W 000°25'2019.8
2014-Oct-19 02:33N 38°03' W 000°11'2019.9
2014-Oct-19 01:33N 38°20' E 000°02'2019.7
2014-Oct-19 00:33N 38°36' E 000°17'4518.3
2014-Oct-18 22:06N 39°19' E 000°01'1018.7
2014-Oct-18 21:33N 39°23' W 000°11'7 6.4
2014-Oct-18 20:31N 39°26' W 000°19'0 0.0
2014-Oct-18 19:33N 39°26' W 000°19'0 0.0
2014-Oct-18 18:33N 39°26' W 000°19'0 0.0
2014-Oct-18 17:32N 39°26' W 000°19'0 0.0
2014-Oct-18 16:26N 39°26' W 000°19'0 0.0
2014-Oct-18 15:31N 39°26' W 000°19'0 0.0
2014-Oct-18 14:31N 39°26' W 000°19'0 0.0
2014-Oct-18 13:31N 39°26' W 000°19'0 0.0
2014-Oct-18 12:33N 39°26' W 000°19'0 0.0
2014-Oct-18 11:33N 39°26' W 000°19'0 0.0
2014-Oct-18 10:32N 39°26' W 000°19'0 0.0
2014-Oct-18 09:32N 39°26' W 000°19'0 0.0
2014-Oct-18 08:31N 39°26' W 000°19'0 0.0
2014-Oct-18 07:31N 39°26' W 000°19'0 0.0
2014-Oct-18 06:34N 39°26' W 000°19'1 0.5
2014-Oct-18 05:33N 39°26' W 000°20'0 0.0
2014-Oct-18 04:33N 39°26' W 000°20'0 0.0
2014-Oct-18 03:33N 39°26' W 000°20'0 0.0
2014-Oct-18 02:32N 39°26' W 000°20'0 0.0
2014-Oct-18 01:32N 39°26' W 000°20'0 0.0
2014-Oct-18 00:31N 39°26' W 000°20'0 0.0
2014-Oct-17 23:31N 39°26' W 000°20'0 0.0
2014-Oct-17 22:33N 39°26' W 000°20'0 0.0
2014-Oct-17 21:33N 39°26' W 000°20'0 0.0
2014-Oct-17 20:32N 39°26' W 000°20'0 0.0
2014-Oct-17 19:32N 39°26' W 000°20'0 0.0
2014-Oct-17 18:32N 39°26' W 000°20'0 0.0
2014-Oct-17 17:31N 39°26' W 000°20'0 0.0
2014-Oct-17 16:29N 39°26' W 000°20'4 3.9
2014-Oct-17 15:33N 39°25' W 000°15'1310.1
2014-Oct-17 14:18N 39°25' E 000°01'1 0.6
2014-Oct-17 13:17N 39°25' E 000°01'0 0.2
2014-Oct-17 12:33N 39°25' E 000°02'38 6.3
2014-Oct-17 06:28N 39°39' E 000°48'1314.5
2014-Oct-17 05:33N 39°50' E 000°58'1414.4
2014-Oct-17 04:33N 40°02' E 001°08'1414.4
2014-Oct-17 03:33N 40°14' E 001°19'1414.5
2014-Oct-17 02:33N 40°25' E 001°30'1414.2
2014-Oct-17 01:33N 40°37' E 001°40'1413.9
2014-Oct-17 00:33N 40°49' E 001°51'1414.1
2014-Oct-16 23:32N 41°00' E 002°01'1414.1
2014-Oct-16 22:32N 41°12' E 002°12'7 6.8
2014-Oct-16 21:33N 41°18' E 002°09'0 0.0
2014-Oct-16 20:18N 41°18' E 002°09'0 0.0
2014-Oct-16 19:05N 41°18' E 002°09'0 0.0
2014-Oct-16 18:29N 41°18' E 002°09'0 0.0
2014-Oct-16 17:28N 41°18' E 002°09'0 0.0
2014-Oct-16 16:28N 41°18' E 002°09'0 0.0
2014-Oct-16 15:28N 41°18' E 002°09'0 0.0
2014-Oct-16 14:24N 41°18' E 002°09'0 0.0
2014-Oct-16 13:33N 41°18' E 002°09'2 1.6
2014-Oct-16 12:33N 41°18' E 002°11'5 5.1
2014-Oct-16 11:33N 41°15' E 002°16'1 1.1
2014-Oct-16 10:33N 41°14' E 002°15'1 1.4
2014-Oct-16 09:33N 41°14' E 002°13'1515.0
2014-Oct-16 08:33N 41°14' E 002°33'2016.2
2014-Oct-16 07:20N 41°23' E 002°57'1314.7
2014-Oct-16 06:25N 41°29' E 003°13'1516.9
2014-Oct-16 05:31N 41°36' E 003°30'9916.1
2014-Oct-15 23:25N 42°21' E 005°29'5116.4
2014-Oct-15 20:19N 42°44' E 006°30'1317.0
2014-Oct-15 19:33N 42°49' E 006°46'1716.7
2014-Oct-15 18:32N 42°57' E 007°07'1515.8
2014-Oct-15 17:34N 43°04' E 007°26'1615.7
2014-Oct-15 16:33N 43°11' E 007°45'1616.6
2014-Oct-15 15:33N 43°19' E 008°05'1716.8
2014-Oct-15 14:33N 43°26' E 008°26'1616.4
2014-Oct-15 13:33N 43°34' E 008°46'1616.1
2014-Oct-15 12:33N 43°38' E 009°07'1616.0
2014-Oct-15 11:33N 43°43' E 009°29'1615.7
2014-Oct-15 10:33N 43°51' E 009°47'1514.6
2014-Oct-15 09:33N 44°05' E 009°51'1 1.3
2014-Oct-15 08:31N 44°06' E 009°51'0 0.0
2014-Oct-15 07:30N 44°06' E 009°51'0 0.0
2014-Oct-15 06:33N 44°06' E 009°51'0 0.0
2014-Oct-15 05:32N 44°06' E 009°51'0 0.0
2014-Oct-15 04:32N 44°06' E 009°51'0 0.0
2014-Oct-15 03:31N 44°06' E 009°51'0 0.0
2014-Oct-15 02:31N 44°06' E 009°51'0 0.0
2014-Oct-15 01:34N 44°06' E 009°51'0 0.0
2014-Oct-15 00:33N 44°06' E 009°51'0 0.0
2014-Oct-14 23:33N 44°06' E 009°51'0 0.0
2014-Oct-14 22:32N 44°06' E 009°51'0 0.0
2014-Oct-14 21:32N 44°06' E 009°51'0 0.0
2014-Oct-14 20:31N 44°06' E 009°51'0 0.0
2014-Oct-14 19:31N 44°06' E 009°51'0 0.0
2014-Oct-14 18:34N 44°06' E 009°51'0 0.0
2014-Oct-14 17:33N 44°06' E 009°51'0 0.0
2014-Oct-14 16:33N 44°06' E 009°51'0 0.0
2014-Oct-14 15:32N 44°06' E 009°51'0 0.0
2014-Oct-14 14:32N 44°06' E 009°51'0 0.0
2014-Oct-14 13:31N 44°06' E 009°51'0 0.0
2014-Oct-14 12:31N 44°06' E 009°51'3 3.4
2014-Oct-14 11:33N 44°03' E 009°52'4 3.7
2014-Oct-14 10:33N 44°00' E 009°54'3 2.5
2014-Oct-14 09:31N 43°59' E 009°51'0 0.1
2014-Oct-14 08:31N 43°59' E 009°51'0 0.1
2014-Oct-14 07:31N 43°59' E 009°51'0 0.0
2014-Oct-14 06:33N 43°59' E 009°51'0 0.0
2014-Oct-14 05:33N 43°59' E 009°51'0 0.0
2014-Oct-14 04:32N 43°59' E 009°51'0 0.0
2014-Oct-14 03:32N 43°59' E 009°51'0 0.1
2014-Oct-14 02:31N 43°59' E 009°51'0 0.1
2014-Oct-14 01:31N 43°59' E 009°51'0 0.1
2014-Oct-14 00:31N 43°59' E 009°51'0 0.1
2014-Oct-13 23:33N 43°59' E 009°51'0 0.1
2014-Oct-13 22:33N 43°59' E 009°51'0 0.1
2014-Oct-13 21:32N 43°59' E 009°51'0 0.0
2014-Oct-13 20:32N 43°59' E 009°51'0 0.0
2014-Oct-13 19:31N 43°59' E 009°51'0 0.0
2014-Oct-13 18:31N 43°59' E 009°51'0 0.1
2014-Oct-13 17:31N 43°59' E 009°51'0 0.2
2014-Oct-13 16:33N 43°59' E 009°51'0 0.2
2014-Oct-13 15:33N 43°59' E 009°51'0 0.0
2014-Oct-13 14:29N 43°59' E 009°51'0 0.0
2014-Oct-13 13:29N 43°59' E 009°51'0 0.0
2014-Oct-13 12:31N 43°59' E 009°51'0 0.1
2014-Oct-13 11:31N 43°59' E 009°51'0 0.0
2014-Oct-13 10:31N 43°59' E 009°51'0 0.1
2014-Oct-13 09:30N 43°59' E 009°51'0 0.0
2014-Oct-13 08:33N 43°59' E 009°50'  

Dump ship's entire track history